createdAt,value
2017-07-09T00:00:06.576Z,28.33
2017-07-09T00:00:47.109Z,28.25
2017-07-09T00:01:27.638Z,28.24
2017-07-09T00:02:08.171Z,28.25
2017-07-09T00:02:48.700Z,28.29
2017-07-09T00:03:29.229Z,28.33
2017-07-09T00:04:09.751Z,28.27
2017-07-09T00:04:50.297Z,28.27
2017-07-09T00:05:30.802Z,28.25
2017-07-09T00:06:11.340Z,28.21
2017-07-09T00:06:51.870Z,28.19
2017-07-09T00:07:32.386Z,28.15
2017-07-09T00:08:12.909Z,28.11
2017-07-09T00:08:53.432Z,28.04
2017-07-09T00:09:33.993Z,28.03
2017-07-09T00:10:14.551Z,28.07
2017-07-09T00:10:55.079Z,28.04
2017-07-09T00:11:35.608Z,28.11
2017-07-09T00:12:16.122Z,28.03
2017-07-09T00:12:56.646Z,28.06
2017-07-09T00:13:37.184Z,28.06
2017-07-09T00:14:17.708Z,28.04
2017-07-09T00:14:58.237Z,28.06
2017-07-09T00:15:38.769Z,27.96
2017-07-09T00:16:19.365Z,28.04
2017-07-09T00:16:59.884Z,28.02
2017-07-09T00:17:40.463Z,27.99
2017-07-09T00:18:20.974Z,27.99
2017-07-09T00:19:01.493Z,27.96
2017-07-09T00:19:42.019Z,28
2017-07-09T00:20:22.571Z,27.99
2017-07-09T00:21:03.056Z,28
2017-07-09T00:21:43.582Z,27.92
2017-07-09T00:22:24.106Z,27.9
2017-07-09T00:23:04.585Z,27.88
2017-07-09T00:23:45.090Z,27.96
2017-07-09T00:24:25.670Z,27.96
2017-07-09T00:25:06.148Z,27.82
2017-07-09T00:25:46.663Z,27.97
2017-07-09T00:26:27.190Z,27.96
2017-07-09T00:27:07.702Z,27.88
2017-07-09T00:27:48.220Z,27.88
2017-07-09T00:28:28.748Z,27.9
2017-07-09T00:29:09.298Z,27.87
2017-07-09T00:29:49.829Z,27.81
2017-07-09T00:30:30.374Z,27.84
2017-07-09T00:31:10.912Z,27.82
2017-07-09T00:31:51.412Z,27.82
2017-07-09T00:32:31.949Z,27.78
2017-07-09T00:33:12.462Z,27.69
2017-07-09T00:33:53.002Z,27.75
2017-07-09T00:34:33.467Z,27.7
2017-07-09T00:35:13.987Z,27.63
2017-07-09T00:35:54.481Z,27.7
2017-07-09T00:36:34.982Z,27.67
2017-07-09T00:37:15.680Z,27.65
2017-07-09T00:37:56.202Z,27.6
2017-07-09T00:38:36.726Z,27.6
2017-07-09T00:39:17.215Z,27.46
2017-07-09T00:39:57.732Z,27.51
2017-07-09T00:40:38.248Z,27.57
2017-07-09T00:41:18.770Z,27.6
2017-07-09T00:41:59.311Z,27.49
2017-07-09T00:42:39.824Z,27.54
2017-07-09T00:43:20.520Z,27.43
2017-07-09T00:44:01.066Z,27.44
2017-07-09T00:44:41.588Z,27.36
2017-07-09T00:45:22.087Z,27.34
2017-07-09T00:46:02.573Z,27.4
2017-07-09T00:46:43.026Z,27.4
2017-07-09T00:47:23.542Z,27.36
2017-07-09T00:48:04.060Z,27.44
2017-07-09T00:48:44.544Z,27.4
2017-07-09T00:49:25.069Z,27.32
2017-07-09T00:50:05.612Z,27.39
2017-07-09T00:50:46.172Z,27.39
2017-07-09T00:51:26.656Z,27.4
2017-07-09T00:52:07.194Z,27.4
2017-07-09T00:52:47.726Z,27.4
2017-07-09T00:53:28.225Z,27.46
2017-07-09T00:54:08.725Z,27.44
2017-07-09T00:54:49.252Z,27.49
2017-07-09T00:55:29.737Z,27.46
2017-07-09T00:56:10.252Z,27.47
2017-07-09T00:56:50.775Z,27.49
2017-07-09T00:57:31.276Z,27.51
2017-07-09T00:58:11.781Z,27.6
2017-07-09T00:58:52.292Z,27.43
2017-07-09T00:59:32.804Z,27.55
2017-07-09T01:00:13.330Z,27.51
2017-07-09T01:00:53.867Z,27.51
2017-07-09T01:01:34.462Z,27.47
2017-07-09T01:02:15.018Z,27.51
2017-07-09T01:02:55.538Z,27.55
2017-07-09T01:03:36.094Z,27.51
2017-07-09T01:04:16.637Z,27.46
2017-07-09T01:04:57.132Z,27.5
2017-07-09T01:05:37.641Z,27.4
2017-07-09T01:06:18.159Z,27.4
2017-07-09T01:06:58.683Z,27.47
2017-07-09T01:07:39.231Z,27.47
2017-07-09T01:08:19.744Z,27.46
2017-07-09T01:09:00.267Z,27.49
2017-07-09T01:09:40.807Z,27.5
2017-07-09T01:10:21.346Z,27.47
2017-07-09T01:11:01.878Z,27.41
2017-07-09T01:11:42.399Z,27.46
2017-07-09T01:12:22.929Z,27.43
2017-07-09T01:13:03.468Z,27.43
2017-07-09T01:13:43.986Z,27.44
2017-07-09T01:14:24.506Z,27.5
2017-07-09T01:15:05.034Z,27.51
2017-07-09T01:15:45.554Z,27.43
2017-07-09T01:16:26.107Z,27.43
2017-07-09T01:17:06.642Z,27.44
2017-07-09T01:17:47.182Z,27.46
2017-07-09T01:18:27.707Z,27.46
2017-07-09T01:19:08.232Z,27.41
2017-07-09T01:19:48.756Z,27.49
2017-07-09T01:20:29.249Z,27.43
2017-07-09T01:21:09.801Z,27.44
2017-07-09T01:21:50.294Z,27.4
2017-07-09T01:22:30.814Z,27.49
2017-07-09T01:23:11.321Z,27.47
2017-07-09T01:23:51.843Z,27.55
2017-07-09T01:24:32.546Z,27.55
2017-07-09T01:25:13.065Z,27.54
2017-07-09T01:25:53.617Z,27.63
2017-07-09T01:26:34.121Z,27.55
2017-07-09T01:27:14.635Z,27.55
2017-07-09T01:27:55.162Z,27.6
2017-07-09T01:28:35.650Z,27.59
2017-07-09T01:29:16.182Z,27.55
2017-07-09T01:29:56.715Z,27.63
2017-07-09T01:30:37.223Z,27.57
2017-07-09T01:31:17.760Z,27.55
2017-07-09T01:31:58.304Z,27.54
2017-07-09T01:32:38.819Z,27.46
2017-07-09T01:33:19.334Z,27.51
2017-07-09T01:33:59.854Z,27.44
2017-07-09T01:34:40.367Z,27.49
2017-07-09T01:35:20.893Z,27.49
2017-07-09T01:36:01.410Z,27.46
2017-07-09T01:36:41.948Z,27.4
2017-07-09T01:37:22.471Z,27.39
2017-07-09T01:38:03.017Z,27.39
2017-07-09T01:38:43.513Z,27.34
2017-07-09T01:39:24.021Z,27.31
2017-07-09T01:40:04.556Z,27.28
2017-07-09T01:40:45.079Z,27.27
2017-07-09T01:41:26.242Z,27.27
2017-07-09T01:42:06.778Z,27.28
2017-07-09T01:42:47.302Z,27.24
2017-07-09T01:43:27.833Z,27.27
2017-07-09T01:44:08.364Z,27.24
2017-07-09T01:44:48.874Z,27.27
2017-07-09T01:45:29.384Z,27.21
2017-07-09T01:46:09.897Z,27.06
2017-07-09T01:46:50.424Z,26.99
2017-07-09T01:47:30.974Z,26.97
2017-07-09T01:48:11.501Z,26.97
2017-07-09T01:48:52.028Z,26.89
2017-07-09T01:49:32.549Z,26.85
2017-07-09T01:50:13.077Z,26.81
2017-07-09T01:50:53.631Z,26.8
2017-07-09T01:51:34.151Z,26.58
2017-07-09T01:52:14.655Z,26.67
2017-07-09T01:52:55.186Z,26.57
2017-07-09T01:53:35.698Z,26.58
2017-07-09T01:54:16.200Z,26.55
2017-07-09T01:54:56.710Z,26.55
2017-07-09T01:55:37.237Z,26.55
2017-07-09T01:56:17.743Z,26.7
2017-07-09T01:56:58.274Z,26.58
2017-07-09T01:57:38.752Z,26.6
2017-07-09T01:58:19.257Z,26.66
2017-07-09T01:58:59.747Z,26.67
2017-07-09T01:59:40.247Z,26.7
2017-07-09T02:00:20.752Z,26.65
2017-07-09T02:01:01.279Z,26.66
2017-07-09T02:01:41.742Z,26.69
2017-07-09T02:02:22.241Z,26.73
2017-07-09T02:03:02.764Z,26.72
2017-07-09T02:03:43.243Z,26.82
2017-07-09T02:04:23.768Z,26.8
2017-07-09T02:05:04.299Z,26.77
2017-07-09T02:05:44.842Z,26.76
2017-07-09T02:06:25.363Z,26.82
2017-07-09T02:07:05.955Z,26.84
2017-07-09T02:07:46.491Z,26.88
2017-07-09T02:08:27.027Z,26.82
2017-07-09T02:09:07.554Z,26.67
2017-07-09T02:09:48.098Z,26.69
2017-07-09T02:10:28.608Z,26.58
2017-07-09T02:11:09.142Z,26.66
2017-07-09T02:11:49.699Z,26.55
2017-07-09T02:12:30.208Z,26.67
2017-07-09T02:13:10.723Z,26.66
2017-07-09T02:13:51.246Z,26.57
2017-07-09T02:14:31.766Z,26.57
2017-07-09T02:15:12.286Z,26.63
2017-07-09T02:15:52.806Z,26.72
2017-07-09T02:16:33.342Z,26.72
2017-07-09T02:17:13.853Z,26.58
2017-07-09T02:17:54.370Z,26.6
2017-07-09T02:18:34.915Z,26.63
2017-07-09T02:19:15.461Z,26.54
2017-07-09T02:19:55.973Z,26.57
2017-07-09T02:20:36.479Z,26.55
2017-07-09T02:21:17.104Z,26.62
2017-07-09T02:21:57.624Z,26.55
2017-07-09T02:22:38.135Z,26.65
2017-07-09T02:23:18.675Z,26.62
2017-07-09T02:23:59.174Z,26.6
2017-07-09T02:24:39.703Z,26.58
2017-07-09T02:25:20.228Z,26.52
2017-07-09T02:26:00.753Z,26.66
2017-07-09T02:26:41.266Z,26.65
2017-07-09T02:27:21.776Z,26.52
2017-07-09T02:28:02.303Z,26.54
2017-07-09T02:28:42.838Z,26.52
2017-07-09T02:29:23.349Z,26.52
2017-07-09T02:30:03.898Z,26.6
2017-07-09T02:30:44.426Z,26.52
2017-07-09T02:31:24.914Z,26.6
2017-07-09T02:32:05.567Z,26.57
2017-07-09T02:32:46.083Z,26.58
2017-07-09T02:33:26.616Z,26.58
2017-07-09T02:34:07.196Z,26.6
2017-07-09T02:34:47.719Z,26.51
2017-07-09T02:35:28.275Z,26.4
2017-07-09T02:36:08.797Z,26.39
2017-07-09T02:36:49.308Z,26.39
2017-07-09T02:37:29.820Z,26.3
2017-07-09T02:38:10.341Z,26.13
2017-07-09T02:38:50.904Z,26.06
2017-07-09T02:39:31.435Z,25.79
2017-07-09T02:40:11.952Z,25.85
2017-07-09T02:40:52.465Z,25.8
2017-07-09T02:41:32.989Z,25.67
2017-07-09T02:43:26.100Z,25.64
2017-07-09T02:44:06.615Z,25.65
2017-07-09T02:44:47.115Z,25.73
2017-07-09T02:45:27.615Z,25.64
2017-07-09T02:46:08.124Z,25.72
2017-07-09T02:46:48.649Z,25.75
2017-07-09T02:47:29.172Z,25.7
2017-07-09T02:48:09.681Z,25.73
2017-07-09T02:48:50.180Z,25.69
2017-07-09T02:49:30.708Z,25.69
2017-07-09T02:50:11.279Z,25.76
2017-07-09T02:50:51.796Z,25.76
2017-07-09T02:51:32.322Z,25.79
2017-07-09T02:52:12.860Z,25.91
2017-07-09T02:52:53.368Z,25.91
2017-07-09T02:53:33.883Z,25.94
2017-07-09T02:54:14.395Z,26.02
2017-07-09T02:54:54.913Z,26.01
2017-07-09T02:55:35.439Z,25.97
2017-07-09T02:56:15.945Z,25.9
2017-07-09T02:56:56.473Z,25.94
2017-07-09T02:57:37.000Z,26.02
2017-07-09T02:58:17.525Z,26.02
2017-07-09T02:58:58.011Z,26.07
2017-07-09T02:59:38.522Z,26.1
2017-07-09T03:00:19.062Z,26.12
2017-07-09T03:00:59.566Z,26.13
2017-07-09T03:01:40.100Z,26.2
2017-07-09T03:02:20.610Z,26.18
2017-07-09T03:03:01.110Z,26.26
2017-07-09T03:03:41.641Z,26.32
2017-07-09T03:04:22.169Z,26.33
2017-07-09T03:05:02.670Z,26.23
2017-07-09T03:05:43.233Z,26.2
2017-07-09T03:06:23.725Z,26.35
2017-07-09T03:07:04.279Z,26.25
2017-07-09T03:07:44.910Z,26.29
2017-07-09T03:08:25.403Z,26.25
2017-07-09T03:09:05.914Z,26.3
2017-07-09T03:09:46.424Z,26.3
2017-07-09T03:10:26.917Z,26.36
2017-07-09T03:11:07.439Z,26.28
2017-07-09T03:11:47.954Z,26.35
2017-07-09T03:12:28.463Z,26.25
2017-07-09T03:13:08.958Z,26.28
2017-07-09T03:13:49.463Z,26.26
2017-07-09T03:14:29.961Z,26.21
2017-07-09T03:15:10.467Z,26.26
2017-07-09T03:15:50.981Z,26.25
2017-07-09T03:16:31.494Z,26.33
2017-07-09T03:17:12.010Z,26.25
2017-07-09T03:17:52.589Z,26.3
2017-07-09T03:18:33.092Z,26.36
2017-07-09T03:19:13.659Z,26.33
2017-07-09T03:19:54.148Z,26.44
2017-07-09T03:20:34.678Z,26.36
2017-07-09T03:21:15.193Z,26.37
2017-07-09T03:21:55.683Z,26.37
2017-07-09T03:22:36.198Z,26.39
2017-07-09T03:23:16.725Z,26.5
2017-07-09T03:23:57.231Z,26.52
2017-07-09T03:24:37.755Z,26.54
2017-07-09T03:26:51.073Z,26.54
2017-07-09T03:27:31.539Z,26.54
2017-07-09T03:28:12.073Z,26.57
2017-07-09T03:28:52.588Z,26.6
2017-07-09T03:29:33.106Z,26.52
2017-07-09T03:30:13.621Z,26.57
2017-07-09T03:30:54.137Z,26.57
2017-07-09T03:31:34.643Z,26.7
2017-07-09T03:32:15.128Z,26.58
2017-07-09T03:32:55.620Z,26.66
2017-07-09T03:33:36.141Z,26.69
2017-07-09T03:34:16.652Z,26.58
2017-07-09T03:34:57.156Z,26.62
2017-07-09T03:35:37.702Z,26.6
2017-07-09T03:36:18.243Z,26.52
2017-07-09T03:36:58.757Z,26.57
2017-07-09T03:37:39.267Z,26.58
2017-07-09T03:38:19.800Z,26.6
2017-07-09T03:39:00.297Z,26.55
2017-07-09T03:39:40.833Z,26.57
2017-07-09T03:40:21.348Z,26.57
2017-07-09T03:41:01.858Z,26.57
2017-07-09T03:41:42.372Z,26.58
2017-07-09T03:42:22.881Z,26.5
2017-07-09T03:43:03.417Z,26.62
2017-07-09T03:43:43.949Z,26.54
2017-07-09T03:44:24.438Z,26.51
2017-07-09T03:45:04.988Z,26.6
2017-07-09T03:45:45.520Z,26.48
2017-07-09T03:46:26.021Z,26.5
2017-07-09T03:47:06.541Z,26.54
2017-07-09T03:47:47.068Z,26.57
2017-07-09T03:48:27.576Z,26.55
2017-07-09T03:49:08.107Z,26.6
2017-07-09T03:49:48.630Z,26.48
2017-07-09T03:51:36.645Z,26.58
2017-07-09T03:52:17.168Z,26.54
2017-07-09T03:52:57.686Z,26.62
2017-07-09T03:53:38.215Z,26.57
2017-07-09T03:54:18.751Z,26.58
2017-07-09T03:54:59.294Z,26.58
2017-07-09T03:55:39.832Z,26.57
2017-07-09T03:56:20.482Z,26.57
2017-07-09T03:57:00.858Z,26.55
2017-07-09T03:57:41.410Z,26.65
2017-07-09T03:58:21.926Z,26.62
2017-07-09T03:59:02.416Z,26.65
2017-07-09T03:59:42.946Z,26.6
2017-07-09T04:00:23.478Z,26.58
2017-07-09T04:01:03.999Z,26.66
2017-07-09T04:01:44.638Z,26.66
2017-07-09T04:02:25.150Z,26.69
2017-07-09T04:03:05.663Z,26.72
2017-07-09T04:03:46.196Z,26.69
2017-07-09T04:04:26.706Z,26.67
2017-07-09T04:05:07.209Z,26.75
2017-07-09T04:05:47.726Z,26.67
2017-07-09T04:06:28.252Z,26.77
2017-07-09T04:07:08.774Z,26.69
2017-07-09T04:07:49.304Z,26.69
2017-07-09T04:08:29.836Z,26.82
2017-07-09T04:09:10.371Z,26.8
2017-07-09T04:09:50.876Z,26.82
2017-07-09T04:10:31.423Z,26.81
2017-07-09T04:11:11.933Z,26.81
2017-07-09T04:11:52.467Z,26.84
2017-07-09T04:12:32.993Z,26.84
2017-07-09T04:13:13.515Z,26.81
2017-07-09T04:13:54.026Z,26.73
2017-07-09T04:14:34.550Z,26.81
2017-07-09T04:15:15.062Z,26.84
2017-07-09T04:15:55.616Z,26.88
2017-07-09T04:16:36.124Z,26.84
2017-07-09T04:17:16.696Z,26.87
2017-07-09T04:17:57.183Z,26.89
2017-07-09T04:18:37.715Z,26.89
2017-07-09T04:19:18.214Z,26.92
2017-07-09T04:19:58.798Z,26.87
2017-07-09T04:20:39.304Z,26.92
2017-07-09T04:21:19.815Z,26.82
2017-07-09T04:22:00.336Z,26.8
2017-07-09T04:22:40.855Z,26.76
2017-07-09T04:23:21.372Z,26.67
2017-07-09T04:24:01.935Z,26.73
2017-07-09T04:24:42.483Z,26.67
2017-07-09T04:25:22.970Z,26.67
2017-07-09T04:26:03.514Z,26.67
2017-07-09T04:26:44.017Z,26.72
2017-07-09T04:27:24.543Z,26.72
2017-07-09T04:28:05.057Z,26.75
2017-07-09T04:28:45.579Z,26.7
2017-07-09T04:29:26.205Z,26.77
2017-07-09T04:30:06.740Z,26.82
2017-07-09T04:30:47.257Z,26.85
2017-07-09T04:31:27.771Z,26.88
2017-07-09T04:32:08.277Z,26.84
2017-07-09T04:32:48.788Z,26.87
2017-07-09T04:33:29.326Z,26.84
2017-07-09T04:34:09.843Z,26.84
2017-07-09T04:34:50.370Z,26.87
2017-07-09T04:35:30.874Z,26.85
2017-07-09T04:36:11.395Z,26.8
2017-07-09T04:36:51.985Z,26.91
2017-07-09T04:37:32.503Z,26.92
2017-07-09T04:38:13.022Z,26.84
2017-07-09T04:38:53.540Z,26.87
2017-07-09T04:39:34.078Z,26.81
2017-07-09T04:40:14.599Z,26.88
2017-07-09T04:40:55.144Z,26.85
2017-07-09T04:41:35.664Z,26.88
2017-07-09T04:42:16.174Z,26.91
2017-07-09T04:42:56.756Z,26.89
2017-07-09T04:43:37.286Z,26.92
2017-07-09T04:44:17.793Z,26.84
2017-07-09T04:44:58.303Z,26.89
2017-07-09T04:46:36.220Z,26.87
2017-07-09T04:47:16.737Z,26.84
2017-07-09T04:47:57.269Z,26.87
2017-07-09T04:48:37.779Z,26.99
2017-07-09T04:49:18.289Z,26.89
2017-07-09T04:49:58.814Z,26.88
2017-07-09T04:50:39.330Z,26.92
2017-07-09T04:51:19.844Z,26.84
2017-07-09T04:52:00.342Z,26.8
2017-07-09T04:52:40.881Z,26.82
2017-07-09T04:53:21.397Z,26.94
2017-07-09T04:54:01.906Z,26.92
2017-07-09T04:54:42.427Z,26.94
2017-07-09T04:55:22.940Z,26.95
2017-07-09T04:56:03.477Z,26.89
2017-07-09T04:56:43.997Z,26.92
2017-07-09T04:57:24.538Z,26.87
2017-07-09T04:58:05.053Z,26.85
2017-07-09T04:58:45.550Z,26.89
2017-07-09T04:59:26.067Z,26.87
2017-07-09T05:00:06.588Z,26.73
2017-07-09T05:00:47.150Z,26.66
2017-07-09T05:01:27.650Z,26.67
2017-07-09T05:02:08.165Z,26.77
2017-07-09T05:02:48.677Z,26.82
2017-07-09T05:03:29.226Z,26.85
2017-07-09T05:04:09.733Z,26.94
2017-07-09T05:04:50.231Z,26.95
2017-07-09T05:05:30.748Z,26.89
2017-07-09T05:06:11.260Z,26.85
2017-07-09T05:06:51.780Z,26.87
2017-07-09T05:07:32.395Z,26.94
2017-07-09T05:08:12.894Z,27.03
2017-07-09T05:10:01.942Z,27.07
2017-07-09T05:10:42.503Z,26.95
2017-07-09T05:11:22.956Z,27.03
2017-07-09T05:12:03.467Z,27.06
2017-07-09T05:12:44.005Z,27.04
2017-07-09T05:13:24.519Z,27.09
2017-07-09T05:14:05.035Z,27.13
2017-07-09T05:14:45.549Z,27.09
2017-07-09T05:15:26.065Z,27.03
2017-07-09T05:16:06.585Z,26.89
2017-07-09T05:16:47.104Z,26.95
2017-07-09T05:17:27.608Z,27.04
2017-07-09T05:18:08.169Z,26.99
2017-07-09T05:18:48.710Z,26.97
2017-07-09T05:19:29.243Z,26.94
2017-07-09T05:20:09.769Z,27.04
2017-07-09T05:20:50.284Z,27.19
2017-07-09T05:21:30.792Z,27.13
2017-07-09T05:22:11.319Z,27.21
2017-07-09T05:22:51.830Z,27.28
2017-07-09T05:23:32.337Z,27.37
2017-07-09T05:24:12.852Z,27.34
2017-07-09T05:24:53.422Z,27.47
2017-07-09T05:25:33.933Z,27.55
2017-07-09T05:26:14.450Z,27.59
2017-07-09T05:26:54.952Z,27.57
2017-07-09T05:27:35.462Z,27.67
2017-07-09T05:28:15.982Z,27.75
2017-07-09T05:28:56.479Z,27.81
2017-07-09T05:29:36.983Z,27.84
2017-07-09T05:30:17.528Z,27.82
2017-07-09T05:30:58.104Z,27.88
2017-07-09T05:31:38.564Z,27.96
2017-07-09T05:32:19.106Z,27.84
2017-07-09T05:32:59.633Z,28.04
2017-07-09T05:33:40.177Z,28.15
2017-07-09T05:34:20.690Z,28.09
2017-07-09T05:35:01.206Z,28.14
2017-07-09T05:35:41.716Z,28.15
2017-07-09T05:36:22.266Z,28.3
2017-07-09T05:37:02.785Z,28.31
2017-07-09T05:37:43.353Z,28.17
2017-07-09T05:38:23.857Z,28.3
2017-07-09T05:40:01.755Z,28.36
2017-07-09T05:40:42.271Z,28.3
2017-07-09T05:41:22.827Z,28.27
2017-07-09T05:42:03.357Z,28.24
2017-07-09T05:42:43.884Z,28.25
2017-07-09T05:43:24.403Z,28.27
2017-07-09T05:44:04.936Z,28.04
2017-07-09T05:44:45.453Z,27.94
2017-07-09T05:45:25.967Z,27.81
2017-07-09T05:46:06.453Z,27.88
2017-07-09T05:46:46.966Z,27.92
2017-07-09T05:47:27.489Z,27.85
2017-07-09T05:48:08.013Z,27.82
2017-07-09T05:48:48.516Z,27.82
2017-07-09T05:49:29.054Z,27.81
2017-07-09T05:50:09.593Z,27.79
2017-07-09T05:50:50.116Z,27.77
2017-07-09T05:51:30.675Z,27.81
2017-07-09T05:52:11.162Z,27.79
2017-07-09T05:52:51.665Z,27.78
2017-07-09T05:53:32.174Z,27.78
2017-07-09T05:54:12.866Z,27.78
2017-07-09T05:54:53.378Z,27.75
2017-07-09T05:55:33.888Z,27.77
2017-07-09T05:56:14.429Z,27.78
2017-07-09T05:56:54.989Z,27.74
2017-07-09T05:59:08.313Z,27.41
2017-07-09T05:59:48.839Z,27.49
2017-07-09T06:00:29.361Z,27.44
2017-07-09T06:01:09.921Z,27.39
2017-07-09T06:01:50.443Z,27.37
2017-07-09T06:02:30.972Z,27.36
2017-07-09T06:03:11.477Z,27.43
2017-07-09T06:03:51.999Z,27.37
2017-07-09T06:04:32.512Z,27.37
2017-07-09T06:05:13.021Z,27.37
2017-07-09T06:05:53.533Z,27.39
2017-07-09T06:06:34.059Z,27.29
2017-07-09T06:07:14.576Z,27.27
2017-07-09T06:07:55.099Z,27.36
2017-07-09T06:09:32.980Z,27.4
2017-07-09T06:10:13.594Z,27.29
2017-07-09T06:10:54.114Z,27.39
2017-07-09T06:11:34.619Z,27.36
2017-07-09T06:12:15.163Z,27.43
2017-07-09T06:12:55.665Z,27.5
2017-07-09T06:13:36.206Z,27.54
2017-07-09T06:14:16.706Z,27.62
2017-07-09T06:14:57.234Z,27.54
2017-07-09T06:15:37.855Z,27.66
2017-07-09T06:16:18.402Z,27.67
2017-07-09T06:16:58.905Z,27.66
2017-07-09T06:17:39.447Z,27.63
2017-07-09T06:18:19.968Z,27.59
2017-07-09T06:19:00.496Z,27.65
2017-07-09T06:19:41.088Z,27.6
2017-07-09T06:20:21.594Z,27.59
2017-07-09T06:21:02.101Z,27.54
2017-07-09T06:21:42.613Z,27.6
2017-07-09T06:22:23.143Z,27.69
2017-07-09T06:23:03.656Z,27.7
2017-07-09T06:23:44.215Z,27.72
2017-07-09T06:24:24.739Z,27.78
2017-07-09T06:25:05.250Z,27.77
2017-07-09T06:25:45.784Z,27.82
2017-07-09T06:26:26.309Z,27.97
2017-07-09T06:27:06.814Z,27.96
2017-07-09T06:27:47.353Z,28.02
2017-07-09T06:28:27.869Z,28.03
2017-07-09T06:29:08.396Z,27.96
2017-07-09T06:29:48.931Z,28.04
2017-07-09T06:30:29.421Z,28.06
2017-07-09T06:31:09.947Z,28.09
2017-07-09T06:31:50.461Z,28.11
2017-07-09T06:32:30.977Z,28.04
2017-07-09T06:33:11.649Z,28.09
2017-07-09T06:33:52.209Z,28.12
2017-07-09T06:34:32.739Z,28.15
2017-07-09T06:35:13.240Z,28.19
2017-07-09T06:35:53.750Z,28.18
2017-07-09T06:36:34.271Z,28.22
2017-07-09T06:37:14.791Z,28.12
2017-07-09T06:37:55.309Z,28.24
2017-07-09T06:38:35.853Z,28.21
2017-07-09T06:39:16.388Z,28.22
2017-07-09T06:39:56.902Z,28.22
2017-07-09T06:40:37.420Z,28.24
2017-07-09T06:41:17.939Z,28.19
2017-07-09T06:41:58.439Z,28.27
2017-07-09T06:42:38.968Z,28.22
2017-07-09T06:43:19.658Z,28.24
2017-07-09T06:44:00.025Z,28.21
2017-07-09T06:44:40.691Z,28.19
2017-07-09T06:45:21.892Z,28.3
2017-07-09T06:46:03.266Z,28.24
2017-07-09T06:46:43.820Z,28.09
2017-07-09T06:47:24.293Z,28.19
2017-07-09T06:48:04.847Z,28.27
2017-07-09T06:48:45.387Z,28.27
2017-07-09T06:49:25.889Z,28.27
2017-07-09T06:50:06.411Z,28.33
2017-07-09T06:50:46.942Z,28.33
2017-07-09T06:51:27.435Z,28.25
2017-07-09T06:52:07.960Z,28.29
2017-07-09T06:52:48.477Z,28.27
2017-07-09T06:53:29.004Z,28.33
2017-07-09T06:54:09.527Z,28.36
2017-07-09T06:54:50.067Z,28.36
2017-07-09T06:55:30.592Z,28.33
2017-07-09T06:56:11.120Z,28.34
2017-07-09T06:56:51.724Z,28.39
2017-07-09T06:57:32.310Z,28.3
2017-07-09T06:58:12.849Z,28.41
2017-07-09T06:58:53.401Z,28.39
2017-07-09T06:59:33.891Z,28.34
2017-07-09T07:00:14.420Z,28.27
2017-07-09T07:00:54.950Z,28.25
2017-07-09T07:01:35.504Z,28.37
2017-07-09T07:02:15.988Z,28.27
2017-07-09T07:02:56.487Z,28.33
2017-07-09T07:03:36.982Z,28.27
2017-07-09T07:04:17.492Z,28.27
2017-07-09T07:04:58.035Z,28.34
2017-07-09T07:05:38.487Z,28.34
2017-07-09T07:06:18.993Z,28.29
2017-07-09T07:07:00.255Z,28.27
2017-07-09T07:07:40.798Z,28.33
2017-07-09T07:08:21.507Z,28.34
2017-07-09T07:09:01.892Z,28.31
2017-07-09T07:09:42.429Z,28.31
2017-07-09T07:10:22.971Z,28.31
2017-07-09T07:11:03.506Z,28.43
2017-07-09T07:11:43.989Z,28.55
2017-07-09T07:12:24.491Z,28.54
2017-07-09T07:13:05.015Z,28.55
2017-07-09T07:13:45.565Z,28.58
2017-07-09T07:14:26.084Z,28.67
2017-07-09T07:15:06.622Z,28.66
2017-07-09T07:15:47.158Z,28.73
2017-07-09T07:16:27.667Z,28.67
2017-07-09T07:17:08.205Z,28.76
2017-07-09T07:17:48.724Z,28.66
2017-07-09T07:18:29.248Z,28.73
2017-07-09T07:19:09.757Z,28.85
2017-07-09T07:19:50.251Z,28.86
2017-07-09T07:20:30.771Z,29.05
2017-07-09T07:21:11.294Z,29.09
2017-07-09T07:21:51.824Z,29.15
2017-07-09T07:22:32.382Z,29.21
2017-07-09T07:23:12.863Z,29.21
2017-07-09T07:23:53.399Z,29.14
2017-07-09T07:24:33.918Z,29.19
2017-07-09T07:25:14.416Z,29.26
2017-07-09T07:25:55.046Z,29.21
2017-07-09T07:26:35.447Z,29.24
2017-07-09T07:27:15.968Z,29.31
2017-07-09T07:27:56.490Z,29.39
2017-07-09T07:28:37.019Z,29.41
2017-07-09T07:29:17.550Z,29.41
2017-07-09T07:29:58.050Z,29.31
2017-07-09T07:30:38.591Z,29.37
2017-07-09T07:31:19.145Z,29.3
2017-07-09T07:31:59.669Z,29.3
2017-07-09T07:32:40.173Z,29.3
2017-07-09T07:33:20.675Z,29.27
2017-07-09T07:34:01.177Z,29.19
2017-07-09T07:34:41.696Z,29.27
2017-07-09T07:35:22.219Z,29.23
2017-07-09T07:36:02.727Z,29.23
2017-07-09T07:36:43.299Z,29.23
2017-07-09T07:37:23.818Z,29.09
2017-07-09T07:38:04.347Z,29.12
2017-07-09T07:38:44.862Z,29.18
2017-07-09T07:39:25.405Z,29.16
2017-07-09T07:40:05.973Z,29.02
2017-07-09T07:40:46.503Z,28.96
2017-07-09T07:41:27.035Z,28.93
2017-07-09T07:42:07.571Z,29.04
2017-07-09T07:42:48.097Z,29.12
2017-07-09T07:43:28.622Z,29.26
2017-07-09T07:44:09.157Z,29.39
2017-07-09T07:44:49.713Z,29.42
2017-07-09T07:45:30.240Z,29.52
2017-07-09T07:46:10.765Z,29.76
2017-07-09T07:46:51.290Z,29.76
2017-07-09T07:47:31.811Z,29.86
2017-07-09T07:48:12.334Z,29.95
2017-07-09T07:48:52.854Z,29.85
2017-07-09T07:49:33.395Z,29.89
2017-07-09T07:50:13.979Z,30.05
2017-07-09T07:50:54.542Z,30.04
2017-07-09T07:51:35.102Z,30.11
2017-07-09T07:52:15.624Z,30.1
2017-07-09T07:52:56.164Z,30.13
2017-07-09T07:53:36.690Z,29.94
2017-07-09T07:54:17.225Z,30.07
2017-07-09T07:54:57.759Z,30.04
2017-07-09T07:55:38.274Z,30.05
2017-07-09T07:56:18.817Z,29.95
2017-07-09T07:56:59.350Z,30.1
2017-07-09T07:57:39.893Z,30.11
2017-07-09T07:58:20.422Z,30.1
2017-07-09T07:59:00.954Z,30.26
2017-07-09T07:59:41.493Z,30.26
2017-07-09T08:00:22.017Z,30.24
2017-07-09T08:01:02.555Z,30.37
2017-07-09T08:01:43.102Z,30.32
2017-07-09T08:02:23.640Z,30.23
2017-07-09T08:03:04.200Z,30.29
2017-07-09T08:03:44.755Z,30.27
2017-07-09T08:04:25.267Z,30.1
2017-07-09T08:05:05.803Z,30.1
2017-07-09T08:05:46.309Z,30.15
2017-07-09T08:06:26.857Z,30.07
2017-07-09T08:07:07.395Z,30.08
2017-07-09T08:07:47.922Z,29.95
2017-07-09T08:08:28.436Z,30.02
2017-07-09T08:09:08.975Z,29.98
2017-07-09T08:09:49.514Z,29.83
2017-07-09T08:10:30.033Z,29.76
2017-07-09T08:11:10.563Z,29.73
2017-07-09T08:11:51.099Z,29.73
2017-07-09T08:12:31.625Z,29.67
2017-07-09T08:13:12.148Z,29.67
2017-07-09T08:13:52.686Z,29.68
2017-07-09T08:14:33.228Z,29.87
2017-07-09T08:15:13.756Z,29.74
2017-07-09T08:15:54.292Z,29.79
2017-07-09T08:16:34.828Z,29.82
2017-07-09T08:17:15.359Z,29.86
2017-07-09T08:17:55.893Z,29.98
2017-07-09T08:18:36.409Z,29.97
2017-07-09T08:19:16.933Z,30
2017-07-09T08:19:57.468Z,30.13
2017-07-09T08:20:38.004Z,30.13
2017-07-09T08:21:18.546Z,30.23
2017-07-09T08:21:59.071Z,30.24
2017-07-09T08:22:39.634Z,30.26
2017-07-09T08:23:20.125Z,30.37
2017-07-09T08:24:00.639Z,30.24
2017-07-09T08:24:41.194Z,30.22
2017-07-09T08:25:21.720Z,30.23
2017-07-09T08:26:02.244Z,30.16
2017-07-09T08:26:42.779Z,30.04
2017-07-09T08:27:23.306Z,29.98
2017-07-09T08:28:03.841Z,29.89
2017-07-09T08:28:44.378Z,30.04
2017-07-09T08:29:24.911Z,29.98
2017-07-09T08:30:05.451Z,30.19
2017-07-09T08:30:45.974Z,30.1
2017-07-09T08:31:26.525Z,30.07
2017-07-09T08:32:07.075Z,30.22
2017-07-09T08:32:47.625Z,30.31
2017-07-09T08:33:28.158Z,30.43
2017-07-09T08:34:08.911Z,30.55
2017-07-09T08:34:49.459Z,30.53
2017-07-09T08:35:29.985Z,30.55
2017-07-09T08:36:10.524Z,30.54
2017-07-09T08:36:51.058Z,30.7
2017-07-09T08:37:31.599Z,30.62
2017-07-09T08:38:12.147Z,30.47
2017-07-09T08:38:52.686Z,30.37
2017-07-09T08:39:33.214Z,30.47
2017-07-09T08:40:13.729Z,30.37
2017-07-09T08:40:54.257Z,30.43
2017-07-09T08:41:34.786Z,30.53
2017-07-09T08:42:15.410Z,30.42
2017-07-09T08:42:55.951Z,30.45
2017-07-09T08:43:36.476Z,30.51
2017-07-09T08:44:17.009Z,30.32
2017-07-09T08:44:57.543Z,30.45
2017-07-09T08:45:38.089Z,30.58
2017-07-09T08:46:18.617Z,30.65
2017-07-09T08:46:59.158Z,30.75
2017-07-09T08:47:39.686Z,30.73
2017-07-09T08:48:20.244Z,30.77
2017-07-09T08:49:00.743Z,30.73
2017-07-09T08:49:41.275Z,30.91
2017-07-09T08:50:21.807Z,30.86
2017-07-09T08:51:02.349Z,30.82
2017-07-09T08:51:42.850Z,30.94
2017-07-09T08:52:23.448Z,31.02
2017-07-09T08:53:03.946Z,30.91